createdAt,value
2022-12-05T00:02:01.026Z,11.25
2022-12-05T00:04:28.924Z,11.95
2022-12-05T00:06:56.763Z,11.98
2022-12-05T00:09:24.525Z,11.57
2022-12-05T00:11:53.674Z,14.57
2022-12-05T00:14:21.482Z,12.75
2022-12-05T00:16:49.346Z,12.10
2022-12-05T00:19:17.373Z,10.50
2022-12-05T00:21:45.360Z,10.68
2022-12-05T00:24:14.990Z,12.25
2022-12-05T00:26:43.662Z,10.77
2022-12-05T00:29:13.295Z,12.02
2022-12-05T00:34:08.793Z,12.32
2022-12-05T00:36:37.557Z,12.93
2022-12-05T00:39:07.750Z,11.45
2022-12-05T00:41:35.876Z,12.32
2022-12-05T00:44:04.787Z,10.57
2022-12-05T00:46:35.124Z,12.32
2022-12-05T00:49:05.253Z,10.45
2022-12-05T00:51:35.255Z,11.68
2022-12-05T00:54:07.446Z,10.80
2022-12-05T00:56:36.022Z,10.10
2022-12-05T00:59:04.692Z,10.10
2022-12-05T01:01:35.560Z,11.93
2022-12-05T01:04:06.314Z,9.43
2022-12-05T01:06:34.376Z,10.85
2022-12-05T01:09:02.227Z,9.63
2022-12-05T01:11:30.591Z,11.45
2022-12-05T01:13:59.267Z,11.55
2022-12-05T01:16:29.712Z,9.95
2022-12-05T01:19:00.662Z,11.38
2022-12-05T01:21:28.437Z,11.15
2022-12-05T01:23:56.580Z,11.55
2022-12-05T01:26:25.319Z,10.23
2022-12-05T01:28:53.591Z,10.15
2022-12-05T01:31:24.480Z,9.02
2022-12-05T01:33:54.086Z,10.10
2022-12-05T01:38:51.683Z,10.60
2022-12-05T01:41:24.547Z,10.82
2022-12-05T01:44:02.178Z,8.35
2022-12-05T01:46:32.829Z,11.40
2022-12-05T01:49:04.580Z,12.05
2022-12-05T01:51:35.381Z,13.00
2022-12-05T01:54:04.903Z,11.18
2022-12-05T01:59:03.856Z,9.45
2022-12-05T02:01:31.989Z,8.95
2022-12-05T02:04:00.669Z,10.32
2022-12-05T02:06:29.444Z,12.23
2022-12-05T02:08:58.621Z,11.43
2022-12-05T02:11:28.988Z,12.13
2022-12-05T02:14:17.954Z,12.55
2022-12-05T02:16:59.746Z,11.85
2022-12-05T02:19:58.608Z,9.73
2022-12-05T02:23:08.608Z,11.13
2022-12-05T02:26:01.932Z,9.13
2022-12-05T02:28:50.139Z,10.07
2022-12-05T02:31:25.677Z,7.13
2022-12-05T02:34:03.691Z,11.90
2022-12-05T02:36:37.424Z,14.23
2022-12-05T02:39:13.934Z,13.10
2022-12-05T02:41:49.036Z,14.20
2022-12-05T02:44:22.543Z,10.52
2022-12-05T02:46:55.209Z,10.75
2022-12-05T02:49:26.453Z,11.25
2022-12-05T02:51:58.096Z,12.93
2022-12-05T02:54:28.847Z,13.55
2022-12-05T02:57:00.162Z,12.00
2022-12-05T02:59:28.392Z,10.50
2022-12-05T03:01:57.778Z,9.98
2022-12-05T03:04:27.535Z,8.70
2022-12-05T03:06:59.852Z,11.25
2022-12-05T03:09:34.186Z,9.55
2022-12-05T03:12:08.596Z,11.00
2022-12-05T03:14:41.175Z,10.13
2022-12-05T03:17:13.661Z,7.97
2022-12-05T03:19:49.511Z,11.40
2022-12-05T03:22:25.060Z,11.75
2022-12-05T03:24:52.916Z,8.95
2022-12-05T03:27:27.110Z,8.88
2022-12-05T03:30:01.960Z,9.18
2022-12-05T03:32:38.658Z,10.18
2022-12-05T03:35:12.203Z,8.90
2022-12-05T03:37:48.022Z,8.63
2022-12-05T03:40:30.692Z,10.10
2022-12-05T03:43:09.078Z,8.20
2022-12-05T03:45:43.382Z,7.25
2022-12-05T03:48:17.848Z,8.43
2022-12-05T03:50:48.902Z,9.00
2022-12-05T03:53:21.145Z,7.25
2022-12-05T03:55:56.708Z,8.30
2022-12-05T03:58:30.379Z,7.70
2022-12-05T04:01:01.208Z,5.75
2022-12-05T04:03:40.239Z,6.97
2022-12-05T04:06:15.086Z,6.22
2022-12-05T04:08:48.006Z,6.20
2022-12-05T04:11:20.989Z,6.53
2022-12-05T04:13:53.256Z,5.93
2022-12-05T04:16:42.835Z,6.85
2022-12-05T04:19:18.789Z,7.88
2022-12-05T04:21:50.567Z,6.22
2022-12-05T04:24:39.923Z,5.97
2022-12-05T04:27:19.347Z,6.60
2022-12-05T04:29:56.143Z,5.47
2022-12-05T04:32:29.739Z,4.93
2022-12-05T04:35:04.513Z,5.88
2022-12-05T04:37:36.746Z,4.97
2022-12-05T04:40:11.300Z,5.70
2022-12-05T04:42:42.616Z,4.82
2022-12-05T04:45:14.854Z,6.10
2022-12-05T04:47:49.440Z,6.25
2022-12-05T04:50:19.953Z,5.95
2022-12-05T04:52:51.428Z,6.30
2022-12-05T04:55:26.002Z,5.07
2022-12-05T04:57:59.729Z,5.05
2022-12-05T05:00:30.875Z,5.53
2022-12-05T05:03:05.405Z,4.82
2022-12-05T05:05:37.145Z,5.38
2022-12-05T05:08:05.519Z,5.15
2022-12-05T05:10:38.739Z,5.68
2022-12-05T05:13:06.481Z,4.80
2022-12-05T05:15:34.241Z,5.03
2022-12-05T05:18:02.119Z,4.53
2022-12-05T05:20:29.877Z,5.03
2022-12-05T05:22:59.613Z,5.45
2022-12-05T05:25:27.702Z,4.95
2022-12-05T05:27:56.753Z,5.80
2022-12-05T05:30:25.949Z,6.00
2022-12-05T05:32:54.422Z,4.45
2022-12-05T05:35:22.667Z,4.72
2022-12-05T05:37:50.460Z,4.55
2022-12-05T05:40:20.385Z,5.40
2022-12-05T05:42:50.627Z,4.15
2022-12-05T05:45:18.804Z,4.82
2022-12-05T05:47:46.584Z,4.55
2022-12-05T05:50:20.930Z,3.95
2022-12-05T05:52:49.369Z,4.53
2022-12-05T05:55:17.359Z,3.85
2022-12-05T05:57:46.538Z,4.53
2022-12-05T06:00:15.728Z,3.67
2022-12-05T06:02:43.654Z,3.58
2022-12-05T06:05:11.550Z,4.68
2022-12-05T06:07:39.454Z,4.07
2022-12-05T06:10:08.842Z,4.43
2022-12-05T06:12:36.589Z,4.00
2022-12-05T06:15:06.883Z,3.83
2022-12-05T06:17:34.716Z,4.30
2022-12-05T06:20:02.456Z,3.63
2022-12-05T06:22:30.713Z,3.63
2022-12-05T06:24:59.056Z,3.42
2022-12-05T06:27:26.968Z,3.42
2022-12-05T06:29:54.700Z,4.13
2022-12-05T06:32:23.883Z,3.20
2022-12-05T06:34:51.672Z,3.92
2022-12-05T06:37:19.451Z,3.72
2022-12-05T06:39:47.225Z,3.20
2022-12-05T06:42:15.002Z,3.88
2022-12-05T06:44:42.837Z,3.05
2022-12-05T06:47:10.605Z,3.05
2022-12-05T06:49:39.914Z,2.95
2022-12-05T06:52:07.808Z,2.90
2022-12-05T06:54:35.754Z,2.78
2022-12-05T06:57:03.562Z,2.90
2022-12-05T06:59:31.324Z,3.22
2022-12-05T07:01:58.102Z,2.85
2022-12-05T07:04:26.016Z,3.28
2022-12-05T07:06:56.418Z,3.42
2022-12-05T07:09:45.822Z,3.25
2022-12-05T07:12:15.409Z,3.08
2022-12-05T07:14:48.731Z,2.50
2022-12-05T07:17:17.442Z,3.15
2022-12-05T07:19:45.253Z,2.90
2022-12-05T07:22:16.244Z,2.75
2022-12-05T07:24:44.439Z,2.45
2022-12-05T07:27:12.556Z,2.50
2022-12-05T07:29:40.320Z,2.85
2022-12-05T07:32:09.601Z,3.10
2022-12-05T07:34:38.764Z,2.65
2022-12-05T07:37:06.602Z,2.65
2022-12-05T07:39:35.830Z,3.20
2022-12-05T07:42:03.635Z,3.30
2022-12-05T07:44:31.502Z,2.78
2022-12-05T07:46:59.399Z,2.65
2022-12-05T07:49:27.341Z,2.40
2022-12-05T07:51:55.055Z,2.90
2022-12-05T07:54:22.977Z,2.38
2022-12-05T07:56:52.169Z,2.33
2022-12-05T07:59:20.213Z,3.83
2022-12-05T08:01:48.071Z,3.17
2022-12-05T08:04:16.229Z,1.90
2022-12-05T08:06:44.063Z,2.95
2022-12-05T08:09:12.488Z,2.97
2022-12-05T08:11:40.256Z,2.70
2022-12-05T08:14:10.731Z,2.33
2022-12-05T08:16:38.649Z,3.25
2022-12-05T08:19:08.519Z,2.67
2022-12-05T08:21:36.926Z,2.67
2022-12-05T08:26:36.240Z,2.88
2022-12-05T08:29:06.000Z,2.38
2022-12-05T08:31:37.185Z,2.50
2022-12-05T08:34:04.950Z,2.85
2022-12-05T08:36:32.985Z,3.00
2022-12-05T08:39:02.518Z,2.83
2022-12-05T08:44:01.378Z,2.78
2022-12-05T08:46:29.263Z,2.83
2022-12-05T08:48:58.488Z,2.95
2022-12-05T08:51:26.440Z,2.00
2022-12-05T08:53:56.319Z,2.45
2022-12-05T08:56:27.067Z,2.95
2022-12-05T08:59:01.228Z,2.42
2022-12-05T09:01:33.360Z,2.45
2022-12-05T09:04:04.515Z,2.58
2022-12-05T09:06:34.393Z,2.75
2022-12-05T09:09:05.104Z,2.10
2022-12-05T09:11:34.918Z,1.85
2022-12-05T09:14:03.453Z,1.80
2022-12-05T09:16:37.986Z,2.80
2022-12-05T09:19:13.169Z,2.28
2022-12-05T09:21:40.887Z,2.53
2022-12-05T09:24:08.860Z,2.75
2022-12-05T09:26:36.643Z,2.22
2022-12-05T09:29:04.487Z,1.85
2022-12-05T09:31:32.751Z,2.17
2022-12-05T09:34:01.786Z,2.45
2022-12-05T09:36:32.878Z,2.63
2022-12-05T09:39:02.641Z,2.17
2022-12-05T09:41:59.186Z,1.95
2022-12-05T09:44:38.343Z,2.33
2022-12-05T09:47:15.682Z,2.05
2022-12-05T09:49:50.386Z,2.33
2022-12-05T09:52:27.308Z,2.00
2022-12-05T09:54:56.087Z,1.38
2022-12-05T09:57:35.142Z,2.10
2022-12-05T10:00:05.957Z,1.50
2022-12-05T10:02:43.547Z,2.65
2022-12-05T10:05:18.679Z,2.25
2022-12-05T10:07:56.490Z,2.45
2022-12-05T10:10:35.428Z,2.50
2022-12-05T10:13:24.182Z,2.42
2022-12-05T10:15:57.580Z,2.13
2022-12-05T10:18:38.355Z,2.97
2022-12-05T10:21:15.605Z,2.30
2022-12-05T10:23:57.882Z,2.55
2022-12-05T10:26:29.957Z,4.60
2022-12-05T10:29:04.053Z,2.47
2022-12-05T10:31:36.376Z,3.20
2022-12-05T10:34:11.215Z,2.42
2022-12-05T10:36:39.301Z,2.35
2022-12-05T10:39:11.418Z,2.75
2022-12-05T10:41:39.771Z,2.20
2022-12-05T10:44:07.573Z,2.63
2022-12-05T10:46:35.878Z,1.67
2022-12-05T10:49:03.956Z,1.45
2022-12-05T10:51:37.234Z,2.10
2022-12-05T10:54:17.432Z,1.70
2022-12-05T10:59:16.472Z,1.80
2022-12-05T11:01:49.076Z,1.20
2022-12-05T11:04:27.208Z,2.65
2022-12-05T11:07:01.012Z,2.33
2022-12-05T11:09:32.437Z,1.58
2022-12-05T11:12:14.353Z,1.85
2022-12-05T11:14:54.093Z,2.60
2022-12-05T11:17:25.576Z,1.77
2022-12-05T11:19:53.405Z,2.05
2022-12-05T11:22:23.227Z,2.28
2022-12-05T11:24:52.403Z,2.10
2022-12-05T11:27:22.631Z,1.20
2022-12-05T11:30:01.230Z,2.58
2022-12-05T11:32:31.413Z,1.58
2022-12-05T11:35:10.841Z,2.08
2022-12-05T11:37:45.036Z,1.70
2022-12-05T11:40:28.060Z,2.20
2022-12-05T11:43:19.853Z,1.63
2022-12-05T11:45:58.612Z,1.40
2022-12-05T11:48:49.964Z,1.30
2022-12-05T11:51:38.347Z,2.00
2022-12-05T11:55:03.870Z,1.88
2022-12-05T11:57:44.149Z,2.78
2022-12-05T12:00:24.071Z,1.38
2022-12-05T12:03:32.757Z,1.23
2022-12-05T12:06:17.243Z,1.75
2022-12-05T12:08:57.737Z,1.45
2022-12-05T12:11:33.484Z,1.30
2022-12-05T12:14:13.819Z,1.30
2022-12-05T12:16:50.468Z,1.70
2022-12-05T12:19:41.568Z,1.52
2022-12-05T12:22:23.537Z,2.88
2022-12-05T12:25:10.659Z,1.60
2022-12-05T12:27:53.200Z,1.13
2022-12-05T12:30:27.635Z,1.30
2022-12-05T12:33:06.555Z,1.52
2022-12-05T12:35:47.125Z,1.80
2022-12-05T12:38:59.249Z,1.17
2022-12-05T12:41:47.452Z,1.08
2022-12-05T12:44:37.968Z,1.35
2022-12-05T12:47:11.567Z,1.77
2022-12-05T12:49:53.218Z,1.55
2022-12-05T12:52:25.282Z,1.40
2022-12-05T12:55:16.393Z,1.55
2022-12-05T12:58:03.565Z,1.83
2022-12-05T13:00:46.298Z,1.65
2022-12-05T13:03:20.903Z,1.40
2022-12-05T13:05:55.121Z,2.13
2022-12-05T13:08:29.580Z,1.75
2022-12-05T13:11:01.628Z,1.20
2022-12-05T13:13:36.470Z,2.13
2022-12-05T13:16:07.897Z,1.50
2022-12-05T13:18:37.427Z,1.73
2022-12-05T13:21:08.925Z,2.05
2022-12-05T13:23:44.531Z,1.88
2022-12-05T13:26:14.439Z,2.17
2022-12-05T13:28:50.932Z,2.35
2022-12-05T13:31:19.521Z,3.05
2022-12-05T13:33:50.708Z,2.22
2022-12-05T13:36:39.690Z,2.28
2022-12-05T13:39:40.930Z,2.15
2022-12-05T13:42:22.760Z,1.55
2022-12-05T13:44:53.260Z,1.70
2022-12-05T13:47:28.346Z,1.55
2022-12-05T13:50:05.153Z,2.10
2022-12-05T13:52:40.415Z,2.10
2022-12-05T13:55:22.321Z,1.63
2022-12-05T13:57:55.540Z,2.33
2022-12-05T14:00:32.790Z,2.17
2022-12-05T14:03:04.730Z,2.47
2022-12-05T14:05:48.842Z,1.98
2022-12-05T14:08:52.383Z,2.20
2022-12-05T14:11:20.470Z,2.67
2022-12-05T14:13:48.560Z,3.03
2022-12-05T14:16:44.250Z,3.28
2022-12-05T14:19:53.623Z,2.30
2022-12-05T14:22:42.573Z,2.80
2022-12-05T14:25:23.404Z,2.40
2022-12-05T14:27:57.019Z,3.10
2022-12-05T14:30:31.291Z,1.90
2022-12-05T14:33:02.843Z,3.13
2022-12-05T14:35:32.368Z,2.92
2022-12-05T14:38:05.214Z,2.97
2022-12-05T14:40:35.522Z,2.60
2022-12-05T14:43:05.892Z,3.65
2022-12-05T14:45:37.215Z,2.95
2022-12-05T14:48:07.529Z,2.78
2022-12-05T14:50:41.909Z,2.78
2022-12-05T14:53:26.693Z,2.35
2022-12-05T14:55:59.224Z,2.85
2022-12-05T14:58:35.160Z,2.65
2022-12-05T15:01:07.493Z,3.08
2022-12-05T15:03:39.576Z,3.38
2022-12-05T15:06:15.531Z,2.72
2022-12-05T15:08:48.681Z,2.83
2022-12-05T15:11:28.338Z,2.55
2022-12-05T15:13:59.380Z,2.92
2022-12-05T15:16:30.570Z,3.53
2022-12-05T15:19:01.912Z,3.55
2022-12-05T15:21:35.011Z,3.35
2022-12-05T15:24:06.685Z,2.50
2022-12-05T15:26:48.479Z,2.85
2022-12-05T15:29:24.244Z,2.55
2022-12-05T15:31:55.057Z,3.35
2022-12-05T15:34:27.356Z,3.25
2022-12-05T15:37:01.224Z,3.25
2022-12-05T15:39:30.969Z,2.85
2022-12-05T15:41:58.899Z,2.53
2022-12-05T15:44:36.100Z,3.80
2022-12-05T15:47:06.936Z,3.50
2022-12-05T15:49:34.699Z,2.85
2022-12-05T15:52:22.842Z,3.67
2022-12-05T15:54:53.634Z,3.25
2022-12-05T15:57:28.400Z,3.45
2022-12-05T16:00:02.655Z,3.53
2022-12-05T16:02:38.520Z,2.97
2022-12-05T16:05:07.285Z,3.05
2022-12-05T16:07:36.334Z,3.17
2022-12-05T16:10:06.988Z,3.67
2022-12-05T16:12:39.377Z,3.05
2022-12-05T16:15:14.501Z,4.13
2022-12-05T16:17:46.953Z,3.00
2022-12-05T16:20:29.444Z,3.72
2022-12-05T16:23:01.476Z,4.05
2022-12-05T16:25:33.681Z,4.22
2022-12-05T16:28:04.374Z,3.83
2022-12-05T16:30:32.831Z,3.33
2022-12-05T16:33:06.394Z,3.45
2022-12-05T16:35:37.709Z,4.47
2022-12-05T16:38:13.339Z,3.03
2022-12-05T16:40:52.494Z,3.25
2022-12-05T16:43:26.099Z,3.95
2022-12-05T16:45:55.346Z,3.45
2022-12-05T16:48:26.368Z,2.67
2022-12-05T16:51:14.981Z,3.30
2022-12-05T16:53:45.916Z,3.47
2022-12-05T16:56:17.051Z,3.40
2022-12-05T16:58:45.328Z,4.00
2022-12-05T17:01:18.638Z,4.50
2022-12-05T17:03:46.894Z,4.97
2022-12-05T17:06:15.283Z,3.25
2022-12-05T17:08:43.854Z,3.88
2022-12-05T17:11:18.674Z,3.92
2022-12-05T17:13:48.446Z,3.58
2022-12-05T17:16:16.534Z,3.30
2022-12-05T17:18:44.284Z,3.03
2022-12-05T17:21:17.071Z,3.85
2022-12-05T17:23:47.691Z,4.55
2022-12-05T17:26:19.278Z,3.55
2022-12-05T17:28:47.389Z,3.20
2022-12-05T17:31:17.445Z,3.72
2022-12-05T17:33:45.898Z,3.28
2022-12-05T17:36:13.828Z,3.58
2022-12-05T17:38:41.757Z,4.72
2022-12-05T17:41:15.434Z,3.58
2022-12-05T17:43:45.596Z,3.08
2022-12-05T17:46:16.767Z,3.17
2022-12-05T17:48:44.609Z,2.42
2022-12-05T17:51:14.392Z,3.38
2022-12-05T17:53:47.028Z,2.70
2022-12-05T17:56:19.159Z,2.85
2022-12-05T17:58:52.085Z,3.22
2022-12-05T18:01:27.186Z,2.63
2022-12-05T18:04:02.242Z,2.53
2022-12-05T18:06:34.523Z,2.80
2022-12-05T18:09:08.494Z,2.80
2022-12-05T18:11:40.574Z,2.35
2022-12-05T18:14:18.597Z,3.28
2022-12-05T18:16:52.880Z,2.28
2022-12-05T18:19:25.762Z,2.13
2022-12-05T18:21:57.838Z,1.90
2022-12-05T18:24:33.710Z,2.60
2022-12-05T18:27:04.936Z,2.63
2022-12-05T18:29:40.751Z,2.30
2022-12-05T18:32:15.934Z,2.08
2022-12-05T18:34:43.876Z,2.38
2022-12-05T18:37:11.799Z,3.00
2022-12-05T18:39:39.679Z,2.15
2022-12-05T18:42:14.610Z,2.08
2022-12-05T18:44:44.799Z,2.30
2022-12-05T18:49:40.111Z,2.17
2022-12-05T18:52:07.799Z,2.65
2022-12-05T18:54:35.643Z,2.65
2022-12-05T18:57:03.358Z,2.38
2022-12-05T18:59:31.100Z,1.70
2022-12-05T19:02:00.727Z,3.05
2022-12-05T19:06:58.813Z,2.45
2022-12-05T19:09:29.149Z,2.40
2022-12-05T19:11:58.644Z,3.13
2022-12-05T19:14:29.390Z,3.10
2022-12-05T19:17:00.101Z,3.30
2022-12-05T19:19:29.740Z,2.95
2022-12-05T19:21:58.832Z,4.40
2022-12-05T19:24:27.002Z,3.83
2022-12-05T19:26:54.754Z,3.78
2022-12-05T19:29:22.507Z,2.40
2022-12-05T19:31:50.327Z,4.13
2022-12-05T19:34:18.086Z,3.97
2022-12-05T19:36:47.347Z,5.40
2022-12-05T19:39:17.946Z,3.83
2022-12-05T19:41:46.392Z,4.03
2022-12-05T19:44:14.924Z,5.20
2022-12-05T19:46:43.182Z,5.53
2022-12-05T19:49:13.160Z,4.63
2022-12-05T19:51:41.903Z,4.03
2022-12-05T19:54:12.586Z,3.00
2022-12-05T19:56:41.179Z,4.97
2022-12-05T19:59:08.916Z,3.30
2022-12-05T20:01:38.618Z,2.97
2022-12-05T20:04:08.532Z,4.50
2022-12-05T20:06:38.841Z,4.13
2022-12-05T20:09:08.111Z,3.45
2022-12-05T20:11:39.936Z,3.75
2022-12-05T20:14:08.101Z,5.32
2022-12-05T20:16:36.747Z,4.07
2022-12-05T20:19:05.689Z,5.73
2022-12-05T20:21:35.786Z,4.78
2022-12-05T20:24:05.589Z,7.40
2022-12-05T20:26:35.022Z,5.80
2022-12-05T20:29:05.763Z,8.63
2022-12-05T20:31:35.187Z,5.65
2022-12-05T20:34:04.020Z,7.28
2022-12-05T20:36:33.786Z,6.72
2022-12-05T20:39:03.040Z,10.15
2022-12-05T20:41:31.115Z,4.38
2022-12-05T20:44:00.456Z,4.55
2022-12-05T20:46:31.545Z,4.00
2022-12-05T20:48:59.442Z,3.78
2022-12-05T20:51:28.779Z,4.20
2022-12-05T20:53:58.248Z,3.75
2022-12-05T20:56:28.161Z,8.23
2022-12-05T20:58:57.788Z,3.78
2022-12-05T21:03:56.625Z,4.43
2022-12-05T21:06:26.068Z,4.75
2022-12-05T21:08:54.711Z,3.00
2022-12-05T21:11:23.420Z,4.03
2022-12-05T21:13:51.287Z,3.37
2022-12-05T21:16:21.267Z,3.65
2022-12-05T21:18:49.173Z,8.52
2022-12-05T21:21:20.032Z,3.15
2022-12-05T21:23:53.071Z,4.70
2022-12-05T21:26:20.924Z,4.80
2022-12-05T21:28:48.738Z,5.13
2022-12-05T21:31:18.877Z,2.88
2022-12-05T21:33:49.083Z,3.72
2022-12-05T21:36:19.216Z,3.20
2022-12-05T21:38:52.235Z,2.50
2022-12-05T21:41:21.850Z,5.72
2022-12-05T21:43:54.037Z,3.55
2022-12-05T21:46:23.057Z,7.28
2022-12-05T21:48:50.938Z,8.75
2022-12-05T21:51:20.336Z,2.53
2022-12-05T21:53:48.090Z,2.72
2022-12-05T21:56:17.857Z,3.33
2022-12-05T21:58:47.510Z,3.17
2022-12-05T22:03:46.053Z,2.17
2022-12-05T22:06:15.237Z,5.03
2022-12-05T22:08:44.806Z,3.30
2022-12-05T22:13:42.033Z,3.28
2022-12-05T22:16:09.969Z,2.55
2022-12-05T22:18:38.337Z,2.28
2022-12-05T22:21:08.127Z,4.05
2022-12-05T22:23:36.315Z,2.70
2022-12-05T22:26:07.735Z,2.42
2022-12-05T22:28:36.517Z,2.92
2022-12-05T22:31:06.642Z,3.22
2022-12-05T22:33:36.500Z,5.15
2022-12-05T22:36:06.037Z,7.35
2022-12-05T22:41:04.306Z,4.18
2022-12-05T22:43:35.517Z,3.40
2022-12-05T22:46:05.247Z,3.00
2022-12-05T22:48:33.287Z,5.30
2022-12-05T22:51:01.836Z,3.72
2022-12-05T22:53:30.681Z,7.50
2022-12-05T22:56:03.511Z,3.95
2022-12-05T22:58:31.403Z,5.90
2022-12-05T23:01:09.455Z,3.20
2022-12-05T23:03:37.228Z,6.85
2022-12-05T23:06:11.084Z,6.38
2022-12-05T23:08:39.785Z,3.10
2022-12-05T23:11:08.241Z,3.08
2022-12-05T23:13:36.917Z,3.88
2022-12-05T23:16:11.172Z,4.03
2022-12-05T23:18:47.608Z,3.45
2022-12-05T23:21:20.819Z,2.97
2022-12-05T23:23:50.204Z,4.88
2022-12-05T23:26:20.347Z,3.78
2022-12-05T23:28:48.624Z,3.10
2022-12-05T23:31:18.810Z,3.95
2022-12-05T23:33:50.866Z,3.35
2022-12-05T23:36:19.647Z,4.97
2022-12-05T23:38:48.052Z,9.75
2022-12-05T23:41:18.466Z,6.68
2022-12-05T23:43:47.524Z,4.60
2022-12-05T23:46:18.643Z,6.25
2022-12-05T23:48:46.655Z,2.55
2022-12-05T23:51:16.116Z,2.72
2022-12-05T23:53:45.487Z,3.03
2022-12-05T23:56:15.268Z,2.17
2022-12-05T23:58:43.911Z,2.55
